createdAt,value
2023-05-21T00:00:49.152Z,5.20
2023-05-21T00:03:21.231Z,5.50
2023-05-21T00:05:50.298Z,5.37
2023-05-21T00:08:18.357Z,5.20
2023-05-21T00:10:46.007Z,5.03
2023-05-21T00:13:13.584Z,6.77
2023-05-21T00:15:41.489Z,5.53
2023-05-21T00:18:09.059Z,5.90
2023-05-21T00:20:37.228Z,5.32
2023-05-21T00:23:05.400Z,5.62
2023-05-21T00:25:33.129Z,5.03
2023-05-21T00:28:01.004Z,5.22
2023-05-21T00:30:28.931Z,5.07
2023-05-21T00:32:58.869Z,4.87
2023-05-21T00:35:26.532Z,5.15
2023-05-21T00:37:54.418Z,4.90
2023-05-21T00:40:21.970Z,5.00
2023-05-21T00:42:49.894Z,5.07
2023-05-21T00:45:17.800Z,5.03
2023-05-21T00:47:45.992Z,5.07
2023-05-21T00:50:15.261Z,5.03
2023-05-21T00:52:45.451Z,5.12
2023-05-21T00:55:13.139Z,4.87
2023-05-21T00:57:41.488Z,4.90
2023-05-21T01:00:10.725Z,5.35
2023-05-21T01:02:38.517Z,5.17
2023-05-21T01:05:06.900Z,5.57
2023-05-21T01:07:36.923Z,4.93
2023-05-21T01:10:06.636Z,4.93
2023-05-21T01:12:35.596Z,4.65
2023-05-21T01:15:04.849Z,4.93
2023-05-21T01:17:34.294Z,5.00
2023-05-21T01:20:10.042Z,5.30
2023-05-21T01:22:56.931Z,5.03
2023-05-21T01:25:24.980Z,5.40
2023-05-21T01:27:52.929Z,5.37
2023-05-21T01:30:21.954Z,5.43
2023-05-21T01:33:13.156Z,5.12
2023-05-21T01:35:51.252Z,5.28
2023-05-21T01:38:34.239Z,5.07
2023-05-21T01:41:10.974Z,4.77
2023-05-21T01:43:39.700Z,4.95
2023-05-21T01:46:10.614Z,5.32
2023-05-21T01:48:38.711Z,4.80
2023-05-21T01:51:07.031Z,5.07
2023-05-21T01:53:35.717Z,4.90
2023-05-21T01:56:03.301Z,5.12
2023-05-21T01:58:31.492Z,5.57
2023-05-21T02:00:58.959Z,5.62
2023-05-21T02:03:31.077Z,5.15
2023-05-21T02:05:58.936Z,5.40
2023-05-21T02:08:28.362Z,5.22
2023-05-21T02:10:56.165Z,5.35
2023-05-21T02:13:26.613Z,5.07
2023-05-21T02:15:56.208Z,5.07
2023-05-21T02:18:23.888Z,5.17
2023-05-21T02:20:51.818Z,5.25
2023-05-21T02:23:19.388Z,5.03
2023-05-21T02:25:47.186Z,5.40
2023-05-21T02:28:15.979Z,5.20
2023-05-21T02:30:43.556Z,4.73
2023-05-21T02:33:14.387Z,4.97
2023-05-21T02:35:43.856Z,4.90
2023-05-21T02:38:13.665Z,5.00
2023-05-21T02:40:41.481Z,4.85
2023-05-21T02:43:09.246Z,4.67
2023-05-21T02:45:36.917Z,5.07
2023-05-21T02:48:04.917Z,4.78
2023-05-21T02:50:33.359Z,5.35
2023-05-21T02:53:01.175Z,5.25
2023-05-21T02:55:28.776Z,4.83
2023-05-21T02:57:56.552Z,4.55
2023-05-21T03:00:24.150Z,4.72
2023-05-21T03:02:52.890Z,5.15
2023-05-21T03:05:20.803Z,5.00
2023-05-21T03:07:48.304Z,5.30
2023-05-21T03:10:16.060Z,5.03
2023-05-21T03:12:43.856Z,4.57
2023-05-21T03:15:14.898Z,4.93
2023-05-21T03:17:44.491Z,4.40
2023-05-21T03:20:16.225Z,4.37
2023-05-21T03:22:44.602Z,4.55
2023-05-21T03:25:12.872Z,4.45
2023-05-21T03:27:40.524Z,4.75
2023-05-21T03:30:09.950Z,4.70
2023-05-21T03:32:41.520Z,4.40
2023-05-21T03:35:09.478Z,4.70
2023-05-21T03:37:37.017Z,3.95
2023-05-21T03:40:06.260Z,4.35
2023-05-21T03:42:34.028Z,4.80
2023-05-21T03:45:01.608Z,4.17
2023-05-21T03:47:30.722Z,4.70
2023-05-21T03:49:58.326Z,4.40
2023-05-21T03:52:26.031Z,3.80
2023-05-21T03:54:54.032Z,4.40
2023-05-21T03:57:21.621Z,4.43
2023-05-21T03:59:49.514Z,3.97
2023-05-21T04:02:17.429Z,4.12
2023-05-21T04:04:45.705Z,4.15
2023-05-21T04:07:15.373Z,4.37
2023-05-21T04:09:43.048Z,4.43
2023-05-21T04:12:11.037Z,4.70
2023-05-21T04:14:38.675Z,4.28
2023-05-21T04:17:06.632Z,4.12
2023-05-21T04:19:34.725Z,4.05
2023-05-21T04:22:03.541Z,4.20
2023-05-21T04:24:31.644Z,4.25
2023-05-21T04:27:01.633Z,3.90
2023-05-21T04:29:30.359Z,3.85
2023-05-21T04:31:57.971Z,3.50
2023-05-21T04:34:25.935Z,3.83
2023-05-21T04:36:54.148Z,4.15
2023-05-21T04:39:21.669Z,4.12
2023-05-21T04:41:50.815Z,3.50
2023-05-21T04:44:18.422Z,3.92
2023-05-21T04:46:46.413Z,4.23
2023-05-21T04:49:15.386Z,3.47
2023-05-21T04:51:43.694Z,3.87
2023-05-21T04:54:11.495Z,3.55
2023-05-21T04:56:40.097Z,3.85
2023-05-21T04:59:07.680Z,3.83
2023-05-21T05:01:35.689Z,4.37
2023-05-21T05:04:04.400Z,3.90
2023-05-21T05:06:32.743Z,3.60
2023-05-21T05:09:00.360Z,3.97
2023-05-21T05:11:28.486Z,3.90
2023-05-21T05:13:56.427Z,3.95
2023-05-21T05:16:27.976Z,4.07
2023-05-21T05:18:56.987Z,4.03
2023-05-21T05:21:24.867Z,3.85
2023-05-21T05:23:52.631Z,3.93
2023-05-21T05:26:22.340Z,3.67
2023-05-21T05:28:50.140Z,3.60
2023-05-21T05:31:17.748Z,3.50
2023-05-21T05:33:46.205Z,3.80
2023-05-21T05:36:13.982Z,3.83
2023-05-21T05:38:41.502Z,3.97
2023-05-21T05:41:09.921Z,3.37
2023-05-21T05:43:37.480Z,3.58
2023-05-21T05:46:05.072Z,3.85
2023-05-21T05:48:32.930Z,4.00
2023-05-21T05:51:01.217Z,3.47
2023-05-21T05:53:29.036Z,3.37
2023-05-21T05:55:57.663Z,3.83
2023-05-21T05:58:25.997Z,3.70
2023-05-21T06:00:54.367Z,4.20
2023-05-21T06:03:22.274Z,3.50
2023-05-21T06:05:53.034Z,3.80
2023-05-21T06:08:20.921Z,3.80
2023-05-21T06:10:53.027Z,3.70
2023-05-21T06:13:20.611Z,3.57
2023-05-21T06:15:48.442Z,3.80
2023-05-21T06:18:16.349Z,3.78
2023-05-21T06:20:44.166Z,3.87
2023-05-21T06:23:11.965Z,3.62
2023-05-21T06:25:41.237Z,3.47
2023-05-21T06:28:09.016Z,3.65
2023-05-21T06:30:36.636Z,3.42
2023-05-21T06:33:04.708Z,3.97
2023-05-21T06:35:34.935Z,3.37
2023-05-21T06:38:03.136Z,3.53
2023-05-21T06:40:31.203Z,4.07
2023-05-21T06:42:59.987Z,3.70
2023-05-21T06:45:32.352Z,3.70
2023-05-21T06:48:00.398Z,3.92
2023-05-21T06:50:28.229Z,4.10
2023-05-21T06:52:55.807Z,3.60
2023-05-21T06:55:23.712Z,3.58
2023-05-21T06:57:53.882Z,3.95
2023-05-21T07:00:21.497Z,3.60
2023-05-21T07:02:49.436Z,3.73
2023-05-21T07:05:17.155Z,3.50
2023-05-21T07:07:44.847Z,3.67
2023-05-21T07:10:12.712Z,3.60
2023-05-21T07:12:41.334Z,3.80
2023-05-21T07:15:09.579Z,3.60
2023-05-21T07:17:37.669Z,3.83
2023-05-21T07:20:08.646Z,3.45
2023-05-21T07:22:39.197Z,3.47
2023-05-21T07:25:09.305Z,3.70
2023-05-21T07:27:36.833Z,4.10
2023-05-21T07:30:05.071Z,3.55
2023-05-21T07:32:33.295Z,3.70
2023-05-21T07:35:03.924Z,4.05
2023-05-21T07:37:31.728Z,3.45
2023-05-21T07:40:00.048Z,3.83
2023-05-21T07:42:27.727Z,4.00
2023-05-21T07:44:56.204Z,3.92
2023-05-21T07:47:24.514Z,3.50
2023-05-21T07:49:52.120Z,3.58
2023-05-21T07:52:19.752Z,3.67
2023-05-21T07:54:47.808Z,3.83
2023-05-21T07:57:15.785Z,3.45
2023-05-21T07:59:44.113Z,3.55
2023-05-21T08:02:12.100Z,3.78
2023-05-21T08:04:41.402Z,4.10
2023-05-21T08:07:09.790Z,3.83
2023-05-21T08:09:37.524Z,4.18
2023-05-21T08:12:06.108Z,3.60
2023-05-21T08:14:33.857Z,4.15
2023-05-21T08:17:01.716Z,3.87
2023-05-21T08:19:29.735Z,3.83
2023-05-21T08:21:57.862Z,3.78
2023-05-21T08:24:26.505Z,3.80
2023-05-21T08:26:54.467Z,3.37
2023-05-21T08:29:22.146Z,3.73
2023-05-21T08:31:49.889Z,3.58
2023-05-21T08:34:18.659Z,2.90
2023-05-21T08:36:48.055Z,3.65
2023-05-21T08:39:17.593Z,3.55
2023-05-21T08:41:49.796Z,3.90
2023-05-21T08:44:21.138Z,4.22
2023-05-21T08:46:50.815Z,3.70
2023-05-21T08:49:20.418Z,3.78
2023-05-21T08:51:50.288Z,3.37
2023-05-21T08:54:18.532Z,3.90
2023-05-21T08:56:49.280Z,3.37
2023-05-21T08:59:17.422Z,3.53
2023-05-21T09:01:46.204Z,3.28
2023-05-21T09:04:21.271Z,3.67
2023-05-21T09:06:50.151Z,3.63
2023-05-21T09:09:33.594Z,3.15
2023-05-21T09:12:01.684Z,4.00
2023-05-21T09:14:29.861Z,3.92
2023-05-21T09:16:59.270Z,3.67
2023-05-21T09:19:29.197Z,4.03
2023-05-21T09:22:02.797Z,3.72
2023-05-21T09:24:33.716Z,3.75
2023-05-21T09:27:06.831Z,4.28
2023-05-21T09:29:35.631Z,3.85
2023-05-21T09:32:07.935Z,4.03
2023-05-21T09:34:36.876Z,3.80
2023-05-21T09:37:13.421Z,3.50
2023-05-21T09:39:48.871Z,4.65
2023-05-21T09:42:16.926Z,3.90
2023-05-21T09:44:44.611Z,3.57
2023-05-21T09:47:12.442Z,3.83
2023-05-21T09:49:39.949Z,3.70
2023-05-21T09:52:07.515Z,3.80
2023-05-21T09:54:35.561Z,3.90
2023-05-21T09:57:03.131Z,3.90
2023-05-21T09:59:40.070Z,3.10
2023-05-21T10:02:20.163Z,3.75
2023-05-21T10:04:50.364Z,3.50
2023-05-21T10:07:25.887Z,3.12
2023-05-21T10:09:58.146Z,3.13
2023-05-21T10:12:26.116Z,3.60
2023-05-21T10:15:01.889Z,3.35
2023-05-21T10:17:30.506Z,3.60
2023-05-21T10:19:59.823Z,3.72
2023-05-21T10:22:27.612Z,3.60
2023-05-21T10:24:55.717Z,3.83
2023-05-21T10:27:23.614Z,3.97
2023-05-21T10:29:51.518Z,4.07
2023-05-21T10:32:21.764Z,3.75
2023-05-21T10:34:49.868Z,3.43
2023-05-21T10:37:17.732Z,3.55
2023-05-21T10:39:49.476Z,3.62
2023-05-21T10:42:32.533Z,3.40
2023-05-21T10:45:37.754Z,3.80
2023-05-21T10:48:21.593Z,4.07
2023-05-21T10:50:58.379Z,3.30
2023-05-21T10:53:46.130Z,3.35
2023-05-21T10:56:31.538Z,3.45
2023-05-21T10:59:10.423Z,3.70
2023-05-21T11:01:40.050Z,3.63
2023-05-21T11:04:08.096Z,3.70
2023-05-21T11:06:35.793Z,3.50
2023-05-21T11:09:16.147Z,3.37
2023-05-21T11:11:50.843Z,3.60
2023-05-21T11:14:39.909Z,3.60
2023-05-21T11:17:17.514Z,3.10
2023-05-21T11:19:51.500Z,3.70
2023-05-21T11:22:27.215Z,3.17
2023-05-21T11:24:56.656Z,3.20
2023-05-21T11:27:42.735Z,3.43
2023-05-21T11:30:15.726Z,3.70
2023-05-21T11:33:10.880Z,3.28
2023-05-21T11:35:45.133Z,3.55
2023-05-21T11:38:12.929Z,3.75
2023-05-21T11:40:51.054Z,3.83
2023-05-21T11:43:18.877Z,3.15
2023-05-21T11:45:47.356Z,3.15
2023-05-21T11:48:15.418Z,3.50
2023-05-21T11:50:43.307Z,3.28
2023-05-21T11:53:13.568Z,3.57
2023-05-21T11:55:47.687Z,3.20
2023-05-21T11:58:16.677Z,3.60
2023-05-21T12:00:44.357Z,3.17
2023-05-21T12:03:14.473Z,3.58
2023-05-21T12:05:49.138Z,3.27
2023-05-21T12:08:27.221Z,3.80
2023-05-21T12:10:58.442Z,2.92
2023-05-21T12:13:26.652Z,3.55
2023-05-21T12:15:54.657Z,3.35
2023-05-21T12:18:22.550Z,3.40
2023-05-21T12:20:52.013Z,3.20
2023-05-21T12:23:21.078Z,3.30
2023-05-21T12:25:48.770Z,3.62
2023-05-21T12:28:16.788Z,3.30
2023-05-21T12:30:44.478Z,3.73
2023-05-21T12:33:12.170Z,3.58
2023-05-21T12:35:40.088Z,3.65
2023-05-21T12:38:08.657Z,4.00
2023-05-21T12:40:38.301Z,3.40
2023-05-21T12:43:07.131Z,3.57
2023-05-21T12:45:34.847Z,4.03
2023-05-21T12:48:03.143Z,3.55
2023-05-21T12:50:33.024Z,4.45
2023-05-21T12:53:00.710Z,3.10
2023-05-21T12:55:28.674Z,3.77
2023-05-21T12:58:05.478Z,3.42
2023-05-21T13:00:33.590Z,4.18
2023-05-21T13:03:04.435Z,3.72
2023-05-21T13:05:32.480Z,4.10
2023-05-21T13:08:00.011Z,3.80
2023-05-21T13:10:27.916Z,3.20
2023-05-21T13:12:55.574Z,3.58
2023-05-21T13:15:23.086Z,3.55
2023-05-21T13:17:52.568Z,3.60
2023-05-21T13:20:23.764Z,3.60
2023-05-21T13:22:52.285Z,3.87
2023-05-21T13:25:22.097Z,3.62
2023-05-21T13:27:50.603Z,4.28
2023-05-21T13:30:19.314Z,4.10
2023-05-21T13:32:47.792Z,4.13
2023-05-21T13:35:16.602Z,4.12
2023-05-21T13:37:45.390Z,4.05
2023-05-21T13:40:15.152Z,3.65
2023-05-21T13:42:48.935Z,4.25
2023-05-21T13:45:18.896Z,3.93
2023-05-21T13:47:47.325Z,3.45
2023-05-21T13:50:16.118Z,3.78
2023-05-21T13:52:44.458Z,3.90
2023-05-21T13:55:12.082Z,4.28
2023-05-21T13:57:40.778Z,4.00
2023-05-21T14:00:12.425Z,3.87
2023-05-21T14:02:42.444Z,4.45
2023-05-21T14:05:11.049Z,4.10
2023-05-21T14:07:40.062Z,4.20
2023-05-21T14:10:08.431Z,4.00
2023-05-21T14:12:36.547Z,3.97
2023-05-21T14:15:04.550Z,3.83
2023-05-21T14:17:32.503Z,4.00
2023-05-21T14:20:00.068Z,3.83
2023-05-21T14:22:27.602Z,4.33
2023-05-21T14:24:56.188Z,3.70
2023-05-21T14:27:23.839Z,3.90
2023-05-21T14:29:51.430Z,4.18
2023-05-21T14:32:19.564Z,4.00
2023-05-21T14:34:47.181Z,4.10
2023-05-21T14:37:14.686Z,3.60
2023-05-21T14:39:42.535Z,3.67
2023-05-21T14:42:10.057Z,3.47
2023-05-21T14:44:37.569Z,3.78
2023-05-21T14:47:05.487Z,3.40
2023-05-21T14:49:33.245Z,3.37
2023-05-21T14:52:01.092Z,4.40
2023-05-21T14:54:28.841Z,3.83
2023-05-21T14:56:56.375Z,4.05
2023-05-21T14:59:23.916Z,3.40
2023-05-21T15:01:51.935Z,4.00
2023-05-21T15:04:19.487Z,3.80
2023-05-21T15:06:46.940Z,3.60
2023-05-21T15:09:14.895Z,4.05
2023-05-21T15:11:44.654Z,3.67
2023-05-21T15:14:12.580Z,4.03
2023-05-21T15:16:40.525Z,3.70
2023-05-21T15:19:08.172Z,3.95
2023-05-21T15:21:35.782Z,3.28
2023-05-21T15:24:04.002Z,3.40
2023-05-21T15:26:31.564Z,3.78
2023-05-21T15:28:59.105Z,3.35
2023-05-21T15:31:26.889Z,3.70
2023-05-21T15:33:54.673Z,3.50
2023-05-21T15:36:22.263Z,3.80
2023-05-21T15:38:50.087Z,3.45
2023-05-21T15:41:17.626Z,3.37
2023-05-21T15:43:46.169Z,3.95
2023-05-21T15:46:14.204Z,3.40
2023-05-21T15:48:41.753Z,4.20
2023-05-21T15:51:09.230Z,3.67
2023-05-21T15:53:37.139Z,3.90
2023-05-21T15:56:04.811Z,4.03
2023-05-21T15:58:32.378Z,3.50
2023-05-21T16:01:00.346Z,4.13
2023-05-21T16:03:28.377Z,4.45
2023-05-21T16:05:55.984Z,4.03
2023-05-21T16:08:23.446Z,3.95
2023-05-21T16:10:51.195Z,3.90
2023-05-21T16:13:18.648Z,3.70
2023-05-21T16:15:46.158Z,3.72
2023-05-21T16:18:14.049Z,3.65
2023-05-21T16:20:41.628Z,3.95
2023-05-21T16:23:09.405Z,3.53
2023-05-21T16:25:37.272Z,3.37
2023-05-21T16:28:05.240Z,3.28
2023-05-21T16:30:32.705Z,3.47
2023-05-21T16:33:00.633Z,3.60
2023-05-21T16:35:28.229Z,4.12
2023-05-21T16:37:55.902Z,3.93
2023-05-21T16:40:23.983Z,4.05
2023-05-21T16:42:52.819Z,3.85
2023-05-21T16:45:21.481Z,3.40
2023-05-21T16:47:50.700Z,3.85
2023-05-21T16:50:19.447Z,3.70
2023-05-21T16:52:46.954Z,3.85
2023-05-21T16:55:15.201Z,3.83
2023-05-21T16:57:42.700Z,3.55
2023-05-21T17:00:10.873Z,3.87
2023-05-21T17:02:38.755Z,3.83
2023-05-21T17:05:06.889Z,3.42
2023-05-21T17:07:34.369Z,3.28
2023-05-21T17:10:02.541Z,3.53
2023-05-21T17:12:30.362Z,3.22
2023-05-21T17:14:57.942Z,3.50
2023-05-21T17:17:25.924Z,3.25
2023-05-21T17:19:53.566Z,3.50
2023-05-21T17:22:21.313Z,3.50
2023-05-21T17:24:49.187Z,3.72
2023-05-21T17:27:16.765Z,3.90
2023-05-21T17:29:44.367Z,3.60
2023-05-21T17:32:12.574Z,3.92
2023-05-21T17:34:40.020Z,3.60
2023-05-21T17:37:07.524Z,4.12
2023-05-21T17:39:35.441Z,3.50
2023-05-21T17:42:03.066Z,3.97
2023-05-21T17:44:30.632Z,3.53
2023-05-21T17:46:58.553Z,3.78
2023-05-21T17:49:26.297Z,4.03
2023-05-21T17:51:53.930Z,3.97
2023-05-21T17:54:24.634Z,3.25
2023-05-21T17:56:52.224Z,3.35
2023-05-21T17:59:21.229Z,3.58
2023-05-21T18:01:49.230Z,3.70
2023-05-21T18:04:17.174Z,3.83
2023-05-21T18:06:44.731Z,3.67
2023-05-21T18:09:14.313Z,3.50
2023-05-21T18:11:43.627Z,3.47
2023-05-21T18:14:11.346Z,3.45
2023-05-21T18:16:38.974Z,3.90
2023-05-21T18:19:06.968Z,3.83
2023-05-21T18:21:35.391Z,3.60
2023-05-21T18:24:03.558Z,3.45
2023-05-21T18:26:31.760Z,3.90
2023-05-21T18:28:59.669Z,3.37
2023-05-21T18:31:27.643Z,3.85
2023-05-21T18:33:56.196Z,3.65
2023-05-21T18:36:24.027Z,3.75
2023-05-21T18:38:52.356Z,3.70
2023-05-21T18:41:22.376Z,3.13
2023-05-21T18:43:50.270Z,3.47
2023-05-21T18:46:19.465Z,3.22
2023-05-21T18:48:48.766Z,3.33
2023-05-21T18:51:16.670Z,3.80
2023-05-21T18:53:44.698Z,3.50
2023-05-21T18:56:12.953Z,3.70
2023-05-21T18:58:40.998Z,3.17
2023-05-21T19:01:08.999Z,3.45
2023-05-21T19:03:38.358Z,3.58
2023-05-21T19:06:06.299Z,3.63
2023-05-21T19:08:34.252Z,3.50
2023-05-21T19:11:02.494Z,3.12
2023-05-21T19:13:30.394Z,3.83
2023-05-21T19:15:58.737Z,3.60
2023-05-21T19:18:32.411Z,3.70
2023-05-21T19:21:00.573Z,3.95
2023-05-21T19:23:29.505Z,3.40
2023-05-21T19:26:00.152Z,3.60
2023-05-21T19:28:28.450Z,3.90
2023-05-21T19:30:56.318Z,3.57
2023-05-21T19:33:24.363Z,3.97
2023-05-21T19:35:52.831Z,3.72
2023-05-21T19:38:21.009Z,3.67
2023-05-21T19:40:49.352Z,4.00
2023-05-21T19:43:17.664Z,3.57
2023-05-21T19:45:45.996Z,4.30
2023-05-21T19:48:14.099Z,4.28
2023-05-21T19:50:42.451Z,4.05
2023-05-21T19:53:13.630Z,3.72
2023-05-21T19:55:47.943Z,4.03
2023-05-21T19:58:19.278Z,3.55
2023-05-21T20:00:58.493Z,4.72
2023-05-21T20:03:35.861Z,3.47
2023-05-21T20:06:04.679Z,4.20
2023-05-21T20:08:39.005Z,4.13
2023-05-21T20:11:07.246Z,4.30
2023-05-21T20:13:35.289Z,4.05
2023-05-21T20:16:03.121Z,4.10
2023-05-21T20:18:35.637Z,4.40
2023-05-21T20:21:06.496Z,4.47
2023-05-21T20:23:34.265Z,3.47
2023-05-21T20:26:02.246Z,3.72
2023-05-21T20:28:30.211Z,3.90
2023-05-21T20:31:11.302Z,3.17
2023-05-21T20:33:44.084Z,3.80
2023-05-21T20:36:26.240Z,3.95
2023-05-21T20:39:03.814Z,3.92
2023-05-21T20:41:35.971Z,3.80
2023-05-21T20:44:05.186Z,3.72
2023-05-21T20:46:34.237Z,4.23
2023-05-21T20:49:05.340Z,3.72
2023-05-21T20:51:33.365Z,3.87
2023-05-21T20:54:06.158Z,3.50
2023-05-21T20:56:42.137Z,3.90
2023-05-21T20:59:11.926Z,3.80
2023-05-21T21:01:41.145Z,3.97
2023-05-21T21:04:09.148Z,3.85
2023-05-21T21:06:38.583Z,4.07
2023-05-21T21:09:09.076Z,4.05
2023-05-21T21:11:37.207Z,4.07
2023-05-21T21:14:07.396Z,3.97
2023-05-21T21:16:35.405Z,3.83
2023-05-21T21:19:03.032Z,3.62
2023-05-21T21:21:31.835Z,4.35
2023-05-21T21:24:02.722Z,3.83
2023-05-21T21:26:30.354Z,3.47
2023-05-21T21:28:59.464Z,3.22
2023-05-21T21:31:27.343Z,3.70
2023-05-21T21:33:55.040Z,4.47
2023-05-21T21:36:25.335Z,3.90
2023-05-21T21:38:53.301Z,3.78
2023-05-21T21:41:23.017Z,3.62
2023-05-21T21:43:51.919Z,3.58
2023-05-21T21:46:19.827Z,3.78
2023-05-21T21:48:47.305Z,4.20
2023-05-21T21:51:15.600Z,3.70
2023-05-21T21:53:43.586Z,3.35
2023-05-21T21:56:11.432Z,4.40
2023-05-21T21:58:38.924Z,3.87
2023-05-21T22:01:06.847Z,4.13
2023-05-21T22:03:34.663Z,3.87
2023-05-21T22:06:02.225Z,3.50
2023-05-21T22:08:29.807Z,3.97
2023-05-21T22:10:57.658Z,3.60
2023-05-21T22:13:26.989Z,3.53
2023-05-21T22:15:56.104Z,3.90
2023-05-21T22:18:36.363Z,3.80
2023-05-21T22:21:10.027Z,3.53
2023-05-21T22:23:38.777Z,3.58
2023-05-21T22:26:07.157Z,3.50
2023-05-21T22:28:34.887Z,3.42
2023-05-21T22:31:03.324Z,3.37
2023-05-21T22:33:31.297Z,3.58
2023-05-21T22:35:58.845Z,3.45
2023-05-21T22:38:26.685Z,3.50
2023-05-21T22:40:54.289Z,3.33
2023-05-21T22:43:21.786Z,3.05
2023-05-21T22:45:49.650Z,3.40
2023-05-21T22:48:18.225Z,3.55
2023-05-21T22:50:46.160Z,3.10
2023-05-21T22:53:14.026Z,2.75
2023-05-21T22:55:41.567Z,3.00
2023-05-21T22:58:09.106Z,3.00
2023-05-21T23:00:37.948Z,2.67
2023-05-21T23:03:05.650Z,3.20
2023-05-21T23:05:33.165Z,3.08
2023-05-21T23:08:01.140Z,3.10
2023-05-21T23:10:28.681Z,2.90
2023-05-21T23:12:56.121Z,3.17
2023-05-21T23:15:24.472Z,3.00
2023-05-21T23:17:52.146Z,2.70
2023-05-21T23:20:21.646Z,2.35
2023-05-21T23:22:49.453Z,2.92
2023-05-21T23:25:17.076Z,2.78
2023-05-21T23:27:44.975Z,3.03
2023-05-21T23:30:12.867Z,2.67
2023-05-21T23:32:40.623Z,2.58
2023-05-21T23:35:09.970Z,2.75
2023-05-21T23:37:37.762Z,2.75
2023-05-21T23:40:05.994Z,2.60
2023-05-21T23:42:33.518Z,2.60
2023-05-21T23:45:01.354Z,2.65
2023-05-21T23:47:29.103Z,2.40
2023-05-21T23:49:56.616Z,2.47
2023-05-21T23:52:24.506Z,2.50
2023-05-21T23:54:52.112Z,2.92
2023-05-21T23:57:19.658Z,2.53
2023-05-21T23:59:47.417Z,2.92
